createdAt,value
2022-11-12T00:01:00.026Z,103416.38
2022-11-12T00:03:27.096Z,103424.34
2022-11-12T00:05:53.876Z,103427.66
2022-11-12T00:08:20.933Z,103427.59
2022-11-12T00:10:47.423Z,103425.97
2022-11-12T00:13:14.573Z,103417.31
2022-11-12T00:15:41.364Z,103421.22
2022-11-12T00:18:08.050Z,103417.81
2022-11-12T00:20:35.030Z,103421.53
2022-11-12T00:23:01.532Z,103416.44
2022-11-12T00:25:28.542Z,103408.88
2022-11-12T00:28:00.299Z,103421.06
2022-11-12T00:30:26.740Z,103426.25
2022-11-12T00:32:53.216Z,103423.69
2022-11-12T00:35:19.693Z,103418.44
2022-11-12T00:37:46.107Z,103417.75
2022-11-12T00:40:12.770Z,103423.25
2022-11-12T00:42:39.237Z,103432.72
2022-11-12T00:45:06.096Z,103435.28
2022-11-12T00:47:32.539Z,103424.16
2022-11-12T00:49:58.948Z,103431.28
2022-11-12T00:52:25.402Z,103426.34
2022-11-12T00:54:52.116Z,103434.28
2022-11-12T00:57:18.545Z,103423.09
2022-11-12T00:59:44.950Z,103428.34
2022-11-12T01:02:11.416Z,103432.06
2022-11-12T01:04:37.813Z,103425.09
2022-11-12T01:07:04.355Z,103419.44
2022-11-12T01:09:30.826Z,103426.50
2022-11-12T01:11:57.319Z,103418.69
2022-11-12T01:14:23.852Z,103417.84
2022-11-12T01:16:50.321Z,103404.00
2022-11-12T01:19:16.884Z,103405.94
2022-11-12T01:21:44.404Z,103415.44
2022-11-12T01:24:11.662Z,103418.16
2022-11-12T01:26:39.060Z,103420.38
2022-11-12T01:29:05.804Z,103420.31
2022-11-12T01:31:36.699Z,103424.78
2022-11-12T01:34:06.306Z,103418.81
2022-11-12T01:36:37.076Z,103415.44
2022-11-12T01:39:05.294Z,103416.50
2022-11-12T01:41:34.260Z,103426.94
2022-11-12T01:44:14.610Z,103421.53
2022-11-12T01:47:09.853Z,103411.09
2022-11-12T01:49:39.325Z,103411.88
2022-11-12T01:52:34.970Z,103415.59
2022-11-12T01:55:20.116Z,103417.38
2022-11-12T01:57:55.896Z,103407.69
2022-11-12T02:00:22.381Z,103407.78
2022-11-12T02:02:57.433Z,103412.34
2022-11-12T02:05:25.256Z,103416.44
2022-11-12T02:07:53.058Z,103409.66
2022-11-12T02:10:21.429Z,103415.88
2022-11-12T02:13:08.364Z,103418.66
2022-11-12T02:15:35.056Z,103420.66
2022-11-12T02:18:01.666Z,103410.41
2022-11-12T02:20:33.696Z,103403.53
2022-11-12T02:23:00.188Z,103404.28
2022-11-12T02:25:28.258Z,103402.59
2022-11-12T02:27:58.189Z,103403.31
2022-11-12T02:30:39.201Z,103392.03
2022-11-12T02:33:05.705Z,103386.84
2022-11-12T02:35:32.343Z,103397.44
2022-11-12T02:37:59.077Z,103396.66
2022-11-12T02:40:26.098Z,103399.50
2022-11-12T02:42:52.684Z,103398.81
2022-11-12T02:45:19.846Z,103395.56
2022-11-12T02:47:46.380Z,103393.78
2022-11-12T02:50:13.367Z,103386.91
2022-11-12T02:52:39.991Z,103394.16
2022-11-12T02:55:10.988Z,103393.38
2022-11-12T02:57:38.726Z,103398.56
2022-11-12T03:00:08.422Z,103386.50
2022-11-12T03:02:34.844Z,103397.72
2022-11-12T03:05:01.341Z,103390.75
2022-11-12T03:07:27.741Z,103395.16
2022-11-12T03:09:54.177Z,103401.41
2022-11-12T03:12:20.577Z,103396.94
2022-11-12T03:14:47.066Z,103396.94
2022-11-12T03:17:13.572Z,103394.31
2022-11-12T03:19:39.997Z,103394.31
2022-11-12T03:22:06.433Z,103394.31
2022-11-12T03:24:32.889Z,103394.38
2022-11-12T03:26:59.334Z,103385.81
2022-11-12T03:29:26.879Z,103390.34
2022-11-12T03:31:53.342Z,103384.31
2022-11-12T03:34:19.755Z,103396.47
2022-11-12T03:36:46.239Z,103388.66
2022-11-12T03:39:12.661Z,103390.50
2022-11-12T03:41:39.167Z,103395.09
2022-11-12T03:44:05.640Z,103390.00
2022-11-12T03:46:32.140Z,103391.09
2022-11-12T03:48:59.909Z,103396.19
2022-11-12T03:51:26.342Z,103389.03
2022-11-12T03:53:52.732Z,103373.34
2022-11-12T03:56:19.167Z,103384.63
2022-11-12T03:58:45.628Z,103374.34
2022-11-12T04:01:12.262Z,103391.09
2022-11-12T04:03:38.729Z,103396.41
2022-11-12T04:06:24.020Z,103392.38
2022-11-12T04:08:50.445Z,103398.69
2022-11-12T04:11:16.961Z,103396.22
2022-11-12T04:13:47.559Z,103391.13
2022-11-12T04:16:35.084Z,103391.84
2022-11-12T04:19:21.721Z,103399.47
2022-11-12T04:21:56.408Z,103409.88
2022-11-12T04:24:46.029Z,103406.41
2022-11-12T04:27:27.687Z,103403.78
2022-11-12T04:30:12.886Z,103396.06
2022-11-12T04:32:46.490Z,103397.78
2022-11-12T04:35:13.380Z,103394.38
2022-11-12T04:37:45.674Z,103391.75
2022-11-12T04:40:36.246Z,103396.44
2022-11-12T04:43:22.931Z,103393.88
2022-11-12T04:45:52.395Z,103405.28
2022-11-12T04:48:19.624Z,103395.03
2022-11-12T04:50:49.746Z,103390.00
2022-11-12T04:53:16.346Z,103385.16
2022-11-12T04:55:42.758Z,103385.13
2022-11-12T04:58:09.309Z,103389.56
2022-11-12T05:00:35.844Z,103387.78
2022-11-12T05:03:02.332Z,103392.91
2022-11-12T05:05:33.627Z,103381.63
2022-11-12T05:08:02.063Z,103380.50
2022-11-12T05:10:28.782Z,103374.41
2022-11-12T05:12:55.451Z,103373.56
2022-11-12T05:15:22.029Z,103369.25
2022-11-12T05:17:48.572Z,103371.88
2022-11-12T05:20:15.374Z,103364.91
2022-11-12T05:22:47.691Z,103370.06
2022-11-12T05:25:14.516Z,103370.03
2022-11-12T05:27:41.002Z,103363.78
2022-11-12T05:30:08.118Z,103368.22
2022-11-12T05:32:34.581Z,103362.31
2022-11-12T05:35:01.094Z,103366.53
2022-11-12T05:37:27.548Z,103360.47
2022-11-12T05:39:54.194Z,103362.22
2022-11-12T05:42:20.623Z,103366.53
2022-11-12T05:44:47.070Z,103363.91
2022-11-12T05:47:13.496Z,103362.22
2022-11-12T05:49:39.942Z,103365.75
2022-11-12T05:52:06.370Z,103365.84
2022-11-12T05:54:32.845Z,103364.06
2022-11-12T05:56:59.304Z,103368.59
2022-11-12T05:59:25.739Z,103374.81
2022-11-12T06:01:52.207Z,103371.28
2022-11-12T06:04:18.735Z,103366.03
2022-11-12T06:06:45.253Z,103365.25
2022-11-12T06:09:12.019Z,103368.03
2022-11-12T06:11:38.687Z,103363.84
2022-11-12T06:14:05.836Z,103376.16
2022-11-12T06:16:32.958Z,103374.47
2022-11-12T06:18:59.430Z,103368.44
2022-11-12T06:21:27.799Z,103364.06
2022-11-12T06:23:59.377Z,103360.81
2022-11-12T06:26:28.661Z,103366.19
2022-11-12T06:28:55.475Z,103375.03
2022-11-12T06:31:22.492Z,103371.56
2022-11-12T06:33:49.550Z,103375.03
2022-11-12T06:36:19.499Z,103381.19
2022-11-12T06:38:46.492Z,103382.88
2022-11-12T06:41:14.407Z,103384.72
2022-11-12T06:43:41.658Z,103378.84
2022-11-12T06:46:12.715Z,103368.44
2022-11-12T06:48:39.494Z,103378.00
2022-11-12T06:51:20.048Z,103375.56
2022-11-12T06:53:47.493Z,103370.28
2022-11-12T06:56:14.403Z,103370.97
2022-11-12T06:58:41.333Z,103380.63
2022-11-12T07:01:16.734Z,103378.97
2022-11-12T07:03:44.347Z,103392.03
2022-11-12T07:06:19.054Z,103389.19
2022-11-12T07:08:49.672Z,103386.44
2022-11-12T07:11:17.745Z,103384.81
2022-11-12T07:13:45.013Z,103392.41
2022-11-12T07:16:12.372Z,103389.69
2022-11-12T07:18:38.871Z,103401.75
2022-11-12T07:21:08.828Z,103402.66
2022-11-12T07:23:36.465Z,103405.28
2022-11-12T07:26:12.415Z,103414.84
2022-11-12T07:28:39.156Z,103413.91
2022-11-12T07:31:07.952Z,103420.66
2022-11-12T07:33:34.513Z,103413.50
2022-11-12T07:36:03.620Z,103414.09
2022-11-12T07:38:32.003Z,103418.97
2022-11-12T07:41:03.151Z,103410.19
2022-11-12T07:43:31.071Z,103415.38
2022-11-12T07:46:10.345Z,103406.50
2022-11-12T07:48:37.823Z,103410.53
2022-11-12T07:51:15.791Z,103413.66
2022-11-12T07:53:43.663Z,103410.81
2022-11-12T07:56:16.204Z,103412.31
2022-11-12T07:58:43.329Z,103406.63
2022-11-12T08:01:36.229Z,103410.50
2022-11-12T08:04:04.898Z,103417.22
2022-11-12T08:06:32.672Z,103408.91
2022-11-12T08:09:01.344Z,103424.13
2022-11-12T08:11:28.067Z,103422.91
2022-11-12T08:13:54.570Z,103422.53
2022-11-12T08:16:21.062Z,103411.72
2022-11-12T08:18:48.089Z,103423.72
2022-11-12T08:21:17.038Z,103433.13
2022-11-12T08:23:43.951Z,103421.75
2022-11-12T08:26:16.884Z,103417.84
2022-11-12T08:28:43.716Z,103413.88
2022-11-12T08:31:14.015Z,103417.69
2022-11-12T08:33:41.264Z,103424.06
2022-11-12T08:36:10.527Z,103426.06
2022-11-12T08:38:37.151Z,103423.78
2022-11-12T08:41:06.316Z,103424.00
2022-11-12T08:43:33.029Z,103426.81
2022-11-12T08:46:00.840Z,103426.91
2022-11-12T08:48:28.625Z,103420.22
2022-11-12T08:50:56.061Z,103422.00
2022-11-12T08:53:24.220Z,103424.06
2022-11-12T08:55:55.156Z,103431.00
2022-11-12T08:58:21.799Z,103417.06
2022-11-12T09:00:50.821Z,103411.94
2022-11-12T09:03:20.978Z,103421.88
2022-11-12T09:05:48.430Z,103413.84
2022-11-12T09:08:19.657Z,103405.69
2022-11-12T09:10:47.065Z,103412.22
2022-11-12T09:13:14.296Z,103418.84
2022-11-12T09:15:41.145Z,103413.16
2022-11-12T09:18:13.333Z,103421.44
2022-11-12T09:20:39.828Z,103415.81
2022-11-12T09:23:09.601Z,103401.22
2022-11-12T09:25:36.571Z,103407.72
2022-11-12T09:28:14.024Z,103407.44
2022-11-12T09:30:46.457Z,103410.03
2022-11-12T09:33:18.054Z,103411.50
2022-11-12T09:35:45.679Z,103412.06
2022-11-12T09:38:14.759Z,103409.84
2022-11-12T09:40:53.375Z,103406.16
2022-11-12T09:43:29.171Z,103407.94
2022-11-12T09:46:26.190Z,103412.88
2022-11-12T09:48:53.577Z,103409.13
2022-11-12T09:51:28.441Z,103401.75
2022-11-12T09:53:57.815Z,103402.78
2022-11-12T09:56:26.107Z,103403.31
2022-11-12T09:58:53.977Z,103411.09
2022-11-12T10:01:42.870Z,103412.09
2022-11-12T10:04:39.994Z,103413.50
2022-11-12T10:07:11.135Z,103410.53
2022-11-12T10:09:58.212Z,103419.00
2022-11-12T10:12:45.361Z,103405.50
2022-11-12T10:15:49.219Z,103414.50
2022-11-12T10:18:39.780Z,103415.09
2022-11-12T10:21:12.206Z,103414.97
2022-11-12T10:23:41.917Z,103413.88
2022-11-12T10:26:20.397Z,103403.09
2022-11-12T10:28:50.370Z,103406.22
2022-11-12T10:31:19.994Z,103405.22
2022-11-12T10:33:46.702Z,103401.81
2022-11-12T10:36:45.325Z,103401.03
2022-11-12T10:39:40.729Z,103396.66
2022-11-12T10:42:13.044Z,103397.31
2022-11-12T10:44:40.791Z,103390.25
2022-11-12T10:47:42.111Z,103385.69
2022-11-12T10:50:08.477Z,103387.09
2022-11-12T10:52:35.541Z,103387.81
2022-11-12T10:55:22.364Z,103388.44
2022-11-12T10:58:16.642Z,103376.47
2022-11-12T11:01:07.214Z,103379.88
2022-11-12T11:03:45.847Z,103374.97
2022-11-12T11:06:15.211Z,103371.50
2022-11-12T11:08:44.838Z,103375.69
2022-11-12T11:11:17.218Z,103373.72
2022-11-12T11:13:45.464Z,103370.81
2022-11-12T11:16:14.899Z,103371.13
2022-11-12T11:18:45.358Z,103363.25
2022-11-12T11:21:41.707Z,103374.06
2022-11-12T11:24:27.052Z,103369.34
2022-11-12T11:27:12.137Z,103361.78
2022-11-12T11:29:53.008Z,103351.97
2022-11-12T11:32:38.307Z,103351.72
2022-11-12T11:35:10.756Z,103354.50
2022-11-12T11:37:55.741Z,103356.25
2022-11-12T11:40:35.681Z,103343.06
2022-11-12T11:43:29.702Z,103344.59
2022-11-12T11:46:17.395Z,103341.50
2022-11-12T11:48:55.787Z,103343.88
2022-11-12T11:51:40.976Z,103340.47
2022-11-12T11:54:29.232Z,103345.81
2022-11-12T11:56:59.052Z,103342.88
2022-11-12T12:00:20.833Z,103341.59
2022-11-12T12:03:12.017Z,103337.91
2022-11-12T12:05:49.794Z,103336.59
2022-11-12T12:08:30.597Z,103331.09
2022-11-12T12:11:09.102Z,103328.81
2022-11-12T12:13:56.938Z,103327.06
2022-11-12T12:16:34.705Z,103319.16
2022-11-12T12:19:07.130Z,103318.28
2022-11-12T12:21:38.887Z,103315.56
2022-11-12T12:24:27.209Z,103319.00
2022-11-12T12:26:57.718Z,103306.41
2022-11-12T12:29:33.373Z,103296.34
2022-11-12T12:32:11.036Z,103286.72
2022-11-12T12:34:42.495Z,103285.25
2022-11-12T12:37:27.045Z,103284.66
2022-11-12T12:40:09.509Z,103283.50
2022-11-12T12:42:49.733Z,103281.53
2022-11-12T12:45:35.603Z,103284.19
2022-11-12T12:48:06.170Z,103275.88
2022-11-12T12:50:36.299Z,103270.50
2022-11-12T12:53:16.351Z,103269.41
2022-11-12T12:55:45.772Z,103256.59
2022-11-12T12:58:22.501Z,103255.72
2022-11-12T13:00:53.072Z,103245.19
2022-11-12T13:03:44.289Z,103243.97
2022-11-12T13:06:33.607Z,103242.75
2022-11-12T13:09:06.937Z,103239.84
2022-11-12T13:12:01.153Z,103241.22
2022-11-12T13:14:36.575Z,103245.56
2022-11-12T13:17:04.284Z,103241.22
2022-11-12T13:19:53.476Z,103233.06
2022-11-12T13:22:19.835Z,103232.19
2022-11-12T13:25:08.354Z,103232.25
2022-11-12T13:27:44.122Z,103240.53
2022-11-12T13:30:30.603Z,103231.56
2022-11-12T13:32:58.832Z,103233.06
2022-11-12T13:35:26.937Z,103232.75
2022-11-12T13:38:08.261Z,103232.00
2022-11-12T13:40:53.792Z,103227.41
2022-11-12T13:43:32.461Z,103223.91
2022-11-12T13:46:24.278Z,103226.88
2022-11-12T13:49:00.181Z,103229.69
2022-11-12T13:51:37.293Z,103231.38
2022-11-12T13:54:28.194Z,103220.97
2022-11-12T13:56:54.932Z,103214.44
2022-11-12T13:59:25.921Z,103217.09
2022-11-12T14:01:52.536Z,103218.22
2022-11-12T14:04:26.320Z,103214.44
2022-11-12T14:07:18.919Z,103211.59
2022-11-12T14:10:08.507Z,103218.63
2022-11-12T14:12:45.817Z,103204.47
2022-11-12T14:15:41.509Z,103208.00
2022-11-12T14:18:23.229Z,103196.47
2022-11-12T14:20:49.926Z,103201.59
2022-11-12T14:23:24.429Z,103207.25
2022-11-12T14:25:53.273Z,103198.97
2022-11-12T14:28:30.016Z,103189.97
2022-11-12T14:30:58.211Z,103185.78
2022-11-12T14:33:26.812Z,103186.22
2022-11-12T14:35:58.857Z,103186.53
2022-11-12T14:38:33.239Z,103187.53
2022-11-12T14:41:25.493Z,103174.63
2022-11-12T14:44:11.156Z,103171.72
2022-11-12T14:46:39.486Z,103176.19
2022-11-12T14:49:45.115Z,103174.13
2022-11-12T14:52:27.261Z,103170.38
2022-11-12T14:54:59.040Z,103167.50
2022-11-12T14:57:30.732Z,103182.84
2022-11-12T14:59:58.152Z,103179.78
2022-11-12T15:02:50.332Z,103178.09
2022-11-12T15:05:20.951Z,103185.16
2022-11-12T15:08:02.792Z,103176.75
2022-11-12T15:10:34.159Z,103181.16
2022-11-12T15:13:08.155Z,103185.72
2022-11-12T15:15:37.607Z,103179.19
2022-11-12T15:18:16.284Z,103175.31
2022-11-12T15:20:43.078Z,103179.72
2022-11-12T15:23:19.395Z,103177.94
2022-11-12T15:25:45.839Z,103174.84
2022-11-12T15:28:24.204Z,103171.78
2022-11-12T15:31:15.540Z,103173.03
2022-11-12T15:33:41.978Z,103167.28
2022-11-12T15:36:21.556Z,103167.56
2022-11-12T15:38:53.671Z,103171.78
2022-11-12T15:41:29.389Z,103175.31
2022-11-12T15:43:56.656Z,103175.72
2022-11-12T15:46:23.091Z,103175.69
2022-11-12T15:48:55.614Z,103168.50
2022-11-12T15:51:22.651Z,103170.47
2022-11-12T15:53:49.166Z,103169.22
2022-11-12T15:56:19.490Z,103164.91
2022-11-12T15:58:46.044Z,103175.69
2022-11-12T16:01:12.873Z,103164.00
2022-11-12T16:03:39.567Z,103162.81
2022-11-12T16:06:09.334Z,103170.88
2022-11-12T16:08:35.976Z,103163.97
2022-11-12T16:11:02.668Z,103168.66
2022-11-12T16:13:33.212Z,103167.03
2022-11-12T16:16:03.550Z,103170.00
2022-11-12T16:18:29.999Z,103167.97
2022-11-12T16:20:57.552Z,103159.78
2022-11-12T16:23:24.106Z,103158.09
2022-11-12T16:25:50.900Z,103165.97
2022-11-12T16:28:18.953Z,103157.53
2022-11-12T16:30:47.579Z,103161.16
2022-11-12T16:33:14.234Z,103156.63
2022-11-12T16:35:41.021Z,103167.03
2022-11-12T16:38:14.697Z,103175.03
2022-11-12T16:40:42.523Z,103170.69
2022-11-12T16:43:09.068Z,103181.69
2022-11-12T16:45:39.551Z,103176.03
2022-11-12T16:48:18.691Z,103183.66
2022-11-12T16:50:45.946Z,103179.19
2022-11-12T16:53:12.479Z,103175.25
2022-11-12T16:55:38.919Z,103173.06
2022-11-12T16:58:05.431Z,103175.97
2022-11-12T17:00:31.894Z,103176.56
2022-11-12T17:02:58.403Z,103181.38
2022-11-12T17:05:25.835Z,103182.47
2022-11-12T17:07:57.749Z,103186.34
2022-11-12T17:10:25.288Z,103171.50
2022-11-12T17:12:52.660Z,103177.75
2022-11-12T17:15:19.705Z,103173.78
2022-11-12T17:17:46.108Z,103169.94
2022-11-12T17:20:12.621Z,103174.88
2022-11-12T17:22:39.031Z,103184.84
2022-11-12T17:25:06.926Z,103174.72
2022-11-12T17:27:33.755Z,103187.38
2022-11-12T17:30:00.209Z,103176.28
2022-11-12T17:32:27.061Z,103182.88
2022-11-12T17:34:53.568Z,103183.69
2022-11-12T17:37:20.021Z,103183.19
2022-11-12T17:39:46.445Z,103176.53
2022-11-12T17:42:12.863Z,103179.88
2022-11-12T17:44:39.316Z,103180.97
2022-11-12T17:47:05.768Z,103171.44
2022-11-12T17:49:32.213Z,103173.25
2022-11-12T17:51:58.659Z,103167.47
2022-11-12T17:54:25.206Z,103166.00
2022-11-12T17:56:51.679Z,103164.41
2022-11-12T17:59:18.123Z,103161.84
2022-11-12T18:01:44.651Z,103168.09
2022-11-12T18:04:11.289Z,103178.69
2022-11-12T18:06:37.776Z,103175.03
2022-11-12T18:09:07.586Z,103175.34
2022-11-12T18:11:49.871Z,103160.06
2022-11-12T18:14:17.104Z,103180.38
2022-11-12T18:16:43.664Z,103169.28
2022-11-12T18:19:11.229Z,103163.59
2022-11-12T18:21:39.850Z,103167.41
2022-11-12T18:24:07.180Z,103173.75
2022-11-12T18:26:33.671Z,103176.00
2022-11-12T18:29:00.638Z,103177.41
2022-11-12T18:31:27.845Z,103171.09
2022-11-12T18:33:54.991Z,103165.50
2022-11-12T18:36:26.293Z,103184.22
2022-11-12T18:38:54.607Z,103182.97
2022-11-12T18:41:25.690Z,103179.78
2022-11-12T18:43:55.168Z,103184.34
2022-11-12T18:46:22.488Z,103180.44
2022-11-12T18:48:49.357Z,103180.56
2022-11-12T18:51:18.089Z,103179.91
2022-11-12T18:53:45.669Z,103181.59
2022-11-12T18:56:17.450Z,103178.97
2022-11-12T18:58:44.048Z,103168.53
2022-11-12T19:01:15.744Z,103165.44
2022-11-12T19:03:43.451Z,103168.28
2022-11-12T19:06:12.472Z,103168.41
2022-11-12T19:08:38.984Z,103167.78
2022-11-12T19:11:08.898Z,103174.13
2022-11-12T19:13:35.983Z,103167.38
2022-11-12T19:16:05.303Z,103158.03
2022-11-12T19:18:32.088Z,103159.75
2022-11-12T19:21:08.105Z,103171.16
2022-11-12T19:23:34.655Z,103167.56
2022-11-12T19:26:06.052Z,103166.94
2022-11-12T19:28:34.210Z,103171.47
2022-11-12T19:31:05.280Z,103177.69
2022-11-12T19:33:32.583Z,103164.72
2022-11-12T19:36:05.122Z,103157.63
2022-11-12T19:38:33.097Z,103166.69
2022-11-12T19:41:06.452Z,103163.09
2022-11-12T19:43:33.060Z,103172.09
2022-11-12T19:45:59.601Z,103157.81
2022-11-12T19:48:26.997Z,103169.00
2022-11-12T19:50:54.097Z,103161.09
2022-11-12T19:53:20.696Z,103161.09
2022-11-12T19:55:47.231Z,103162.25
2022-11-12T19:58:13.715Z,103167.53
2022-11-12T20:00:40.709Z,103161.50
2022-11-12T20:03:07.188Z,103160.34
2022-11-12T20:05:33.633Z,103155.19
2022-11-12T20:08:00.045Z,103144.28
2022-11-12T20:10:26.469Z,103150.19
2022-11-12T20:12:52.875Z,103145.66
2022-11-12T20:15:19.437Z,103147.56
2022-11-12T20:17:45.936Z,103140.03
2022-11-12T20:20:12.492Z,103149.09
2022-11-12T20:22:38.929Z,103152.59
2022-11-12T20:25:05.619Z,103151.00
2022-11-12T20:27:32.117Z,103141.50
2022-11-12T20:29:58.717Z,103145.09
2022-11-12T20:32:25.336Z,103129.47
2022-11-12T20:34:51.800Z,103138.22
2022-11-12T20:37:18.542Z,103136.72
2022-11-12T20:39:45.723Z,103118.78
2022-11-12T20:42:12.228Z,103130.28
2022-11-12T20:44:38.828Z,103126.16
2022-11-12T20:47:05.270Z,103121.16
2022-11-12T20:49:31.705Z,103124.75
2022-11-12T20:51:58.124Z,103117.03
2022-11-12T20:54:24.618Z,103114.50
2022-11-12T20:56:51.078Z,103113.56
2022-11-12T20:59:17.550Z,103113.66
2022-11-12T21:01:44.246Z,103114.31
2022-11-12T21:04:12.293Z,103121.47
2022-11-12T21:06:39.189Z,103114.06
2022-11-12T21:09:05.734Z,103115.13
2022-11-12T21:11:32.492Z,103109.25
2022-11-12T21:14:00.343Z,103111.81
2022-11-12T21:16:27.034Z,103112.94
2022-11-12T21:18:53.518Z,103116.63
2022-11-12T21:21:21.339Z,103105.41
2022-11-12T21:23:50.295Z,103107.81
2022-11-12T21:26:20.205Z,103113.38
2022-11-12T21:28:51.513Z,103100.31
2022-11-12T21:31:29.893Z,103111.03
2022-11-12T21:34:00.231Z,103093.53
2022-11-12T21:36:28.221Z,103092.69
2022-11-12T21:38:54.819Z,103092.25
2022-11-12T21:41:27.335Z,103098.53
2022-11-12T21:43:54.336Z,103097.72
2022-11-12T21:46:21.799Z,103089.63
2022-11-12T21:48:54.749Z,103099.63
2022-11-12T21:51:24.944Z,103098.88
2022-11-12T21:53:57.437Z,103104.13
2022-11-12T21:56:24.792Z,103115.63
2022-11-12T21:58:52.899Z,103111.38
2022-11-12T22:01:22.591Z,103116.94
2022-11-12T22:03:50.091Z,103108.19
2022-11-12T22:06:17.234Z,103107.44
2022-11-12T22:08:43.802Z,103103.03
2022-11-12T22:11:12.819Z,103106.59
2022-11-12T22:13:40.197Z,103113.75
2022-11-12T22:16:06.847Z,103113.09
2022-11-12T22:18:36.350Z,103110.75
2022-11-12T22:21:09.929Z,103108.97
2022-11-12T22:23:36.472Z,103114.31
2022-11-12T22:26:09.551Z,103103.97
2022-11-12T22:28:36.149Z,103102.28
2022-11-12T22:31:14.768Z,103097.00
2022-11-12T22:33:41.748Z,103093.56
2022-11-12T22:36:11.283Z,103093.63
2022-11-12T22:38:42.576Z,103094.50
2022-11-12T22:41:12.270Z,103097.38
2022-11-12T22:43:38.759Z,103093.63
2022-11-12T22:46:15.234Z,103099.84
2022-11-12T22:48:41.954Z,103090.16
2022-11-12T22:51:29.698Z,103090.16
2022-11-12T22:54:01.757Z,103087.25
2022-11-12T22:56:28.805Z,103086.59
2022-11-12T22:58:55.746Z,103083.97
2022-11-12T23:01:27.480Z,103085.84
2022-11-12T23:04:02.135Z,103076.34
2022-11-12T23:06:30.042Z,103073.69
2022-11-12T23:08:59.123Z,103075.38
2022-11-12T23:11:28.676Z,103084.03
2022-11-12T23:13:55.624Z,103085.16
2022-11-12T23:16:29.147Z,103082.53
2022-11-12T23:18:55.689Z,103067.13
2022-11-12T23:21:24.776Z,103069.84
2022-11-12T23:23:51.690Z,103072.38
2022-11-12T23:26:23.413Z,103063.09
2022-11-12T23:28:50.356Z,103072.56
2022-11-12T23:31:18.286Z,103090.91
2022-11-12T23:33:49.755Z,103082.16
2022-11-12T23:36:16.865Z,103077.84
2022-11-12T23:38:43.884Z,103074.25
2022-11-12T23:41:16.645Z,103081.50
2022-11-12T23:43:43.373Z,103072.94
2022-11-12T23:46:10.100Z,103073.31
2022-11-12T23:48:36.743Z,103081.97
2022-11-12T23:51:06.381Z,103066.19
2022-11-12T23:53:34.534Z,103073.13
2022-11-12T23:56:01.800Z,103062.03
2022-11-12T23:58:28.726Z,103065.53
